Aviation Digital Data Service (ADDS)

Output produced by TAFs form (0727 UTC 23 September 2017)
found at http://www.aviationweather.gov/adds/tafs/
 
METAR text: RJFU 230700Z 35009KT 9999 -RA FEW030 SCT050 BKN080 24/20 Q1015
Conditions at: RJFU (NAGASAKI(CIV/JMS, JP) observed 0700 UTC 23 September 2017
Temperature: 24.0°C (75°F)
Dewpoint: 20.0°C (68°F) [RH = 78%]
Pressure (altimeter): 29.97 inches Hg (1015.0 mb)
Winds: from the N (350 degrees) at 10 MPH (9 knots; 4.7 m/s)
Visibility: 6 or more miles (10+ km)
Ceiling: 8000 feet AGL
Clouds: few clouds at 3000 feet AGL
scattered clouds at 5000 feet AGL
broken clouds at 8000 feet AGL
Weather: -RA  (light rain)

Forecast for: RJFU (NAGASAKI(CIV/JMS, JP)
Text: TAF RJFU 230506Z 2306/2412 35010KT 9999 FEW030
Forecast period: 0600 UTC 23 September 2017 to 1200 UTC 24 September 2017
Forecast type: FROM: standard forecast or significant change
Winds: from the N (350 degrees) at 12 MPH (10 knots; 5.2 m/s)
Visibility: 6 or more miles (10+ km)
Clouds: few clouds at 3000 feet AGL
Weather: no significant weather forecast for this period